createdAt,value
2023-01-20T00:02:25.800Z,16.98
2023-01-20T00:04:52.104Z,20.38
2023-01-20T00:07:18.455Z,32.78
2023-01-20T00:09:44.737Z,29.00
2023-01-20T00:12:11.025Z,28.75
2023-01-20T00:14:37.336Z,25.95
2023-01-20T00:17:03.895Z,24.05
2023-01-20T00:19:30.188Z,18.35
2023-01-20T00:21:56.476Z,19.88
2023-01-20T00:24:22.759Z,15.80
2023-01-20T00:26:49.064Z,18.25
2023-01-20T00:29:15.374Z,16.35
2023-01-20T00:31:41.842Z,17.23
2023-01-20T00:34:09.551Z,20.35
2023-01-20T00:36:36.048Z,17.17
2023-01-20T00:39:03.116Z,22.05
2023-01-20T00:41:29.534Z,20.67
2023-01-20T00:43:55.794Z,15.93
2023-01-20T00:46:23.154Z,19.23
2023-01-20T00:48:49.508Z,19.15
2023-01-20T00:51:15.764Z,19.73
2023-01-20T00:53:42.031Z,15.43
2023-01-20T00:56:08.718Z,15.20
2023-01-20T00:58:35.047Z,12.95
2023-01-20T01:01:01.783Z,21.02
2023-01-20T01:03:28.591Z,15.32
2023-01-20T01:05:54.958Z,15.27
2023-01-20T01:08:21.292Z,17.25
2023-01-20T01:10:47.564Z,14.52
2023-01-20T01:13:13.859Z,14.18
2023-01-20T01:15:40.158Z,13.43
2023-01-20T01:18:06.509Z,22.00
2023-01-20T01:20:32.809Z,18.20
2023-01-20T01:22:59.158Z,16.00
2023-01-20T01:25:25.513Z,15.18
2023-01-20T01:27:51.828Z,14.43
2023-01-20T01:30:18.162Z,17.83
2023-01-20T01:32:44.542Z,21.35
2023-01-20T01:35:10.875Z,16.35
2023-01-20T01:37:37.309Z,19.30
2023-01-20T01:40:03.742Z,18.45
2023-01-20T01:42:30.081Z,22.23
2023-01-20T01:45:12.031Z,18.25
2023-01-20T01:47:40.919Z,15.55
2023-01-20T01:50:08.998Z,13.95
2023-01-20T01:52:35.573Z,15.32
2023-01-20T01:55:02.331Z,15.27
2023-01-20T01:57:30.076Z,16.30
2023-01-20T01:59:56.476Z,17.35
2023-01-20T02:02:24.175Z,11.77
2023-01-20T02:04:50.636Z,14.68
2023-01-20T02:07:18.777Z,18.42
2023-01-20T02:09:45.126Z,12.18
2023-01-20T02:12:13.532Z,10.88
2023-01-20T02:14:47.970Z,13.13
2023-01-20T02:17:21.092Z,13.95
2023-01-20T02:20:02.753Z,9.52
2023-01-20T02:22:36.403Z,12.10
2023-01-20T02:25:14.421Z,10.43
2023-01-20T02:27:59.645Z,11.02
2023-01-20T02:30:35.314Z,9.20
2023-01-20T02:33:05.417Z,10.15
2023-01-20T02:35:42.458Z,8.90
2023-01-20T02:38:11.959Z,10.43
2023-01-20T02:40:46.412Z,13.07
2023-01-20T02:43:21.966Z,11.65
2023-01-20T02:46:08.493Z,12.32
2023-01-20T02:48:36.593Z,10.88
2023-01-20T02:51:07.678Z,10.23
2023-01-20T02:53:38.164Z,16.33
2023-01-20T02:56:04.633Z,9.80
2023-01-20T02:58:38.408Z,8.93
2023-01-20T03:01:13.478Z,7.00
2023-01-20T03:03:42.138Z,10.23
2023-01-20T03:06:11.594Z,9.02
2023-01-20T03:08:39.396Z,7.85
2023-01-20T03:11:06.844Z,10.15
2023-01-20T03:13:36.443Z,8.82
2023-01-20T03:16:04.885Z,15.63
2023-01-20T03:18:32.538Z,14.40
2023-01-20T03:20:59.609Z,10.98
2023-01-20T03:23:27.377Z,10.07
2023-01-20T03:25:53.852Z,11.32
2023-01-20T03:28:20.193Z,12.70
2023-01-20T03:30:46.565Z,13.27
2023-01-20T03:33:14.021Z,11.93
2023-01-20T03:35:40.864Z,11.60
2023-01-20T03:38:07.355Z,10.70
2023-01-20T03:40:37.335Z,13.90
2023-01-20T03:43:10.804Z,13.25
2023-01-20T03:48:09.871Z,11.60
2023-01-20T03:50:54.888Z,12.25
2023-01-20T03:53:33.654Z,11.38
2023-01-20T03:56:05.838Z,12.02
2023-01-20T03:58:33.641Z,8.27
2023-01-20T04:01:00.877Z,10.68
2023-01-20T04:03:31.315Z,9.10
2023-01-20T04:05:59.583Z,9.80
2023-01-20T04:08:28.001Z,10.07
2023-01-20T04:10:55.449Z,10.93
2023-01-20T04:13:21.830Z,10.35
2023-01-20T04:15:48.279Z,12.02
2023-01-20T04:18:16.162Z,11.10
2023-01-20T04:20:43.654Z,8.95
2023-01-20T04:23:17.263Z,10.85
2023-01-20T04:25:43.854Z,9.50
2023-01-20T04:28:10.096Z,11.50
2023-01-20T04:30:36.466Z,10.77
2023-01-20T04:33:02.885Z,10.68
2023-01-20T04:35:29.201Z,12.77
2023-01-20T04:37:55.461Z,11.55
2023-01-20T04:40:21.810Z,12.35
2023-01-20T04:42:48.063Z,11.90
2023-01-20T04:45:15.814Z,10.65
2023-01-20T04:47:42.511Z,12.35
2023-01-20T04:50:09.186Z,13.63
2023-01-20T04:52:35.496Z,14.63
2023-01-20T04:55:02.145Z,12.77
2023-01-20T04:57:28.540Z,13.48
2023-01-20T04:59:54.810Z,13.75
2023-01-20T05:02:21.203Z,15.18
2023-01-20T05:04:47.731Z,12.13
2023-01-20T05:07:14.045Z,10.73
2023-01-20T05:09:40.286Z,12.05
2023-01-20T05:12:06.669Z,11.45
2023-01-20T05:14:32.971Z,11.48
2023-01-20T05:16:59.332Z,14.88
2023-01-20T05:19:25.661Z,9.65
2023-01-20T05:21:51.969Z,13.20
2023-01-20T05:24:18.305Z,15.65
2023-01-20T05:26:44.597Z,16.48
2023-01-20T05:29:10.956Z,17.48
2023-01-20T05:31:43.213Z,17.25
2023-01-20T05:34:10.200Z,15.25
2023-01-20T05:36:36.571Z,15.88
2023-01-20T05:39:02.986Z,9.98
2023-01-20T05:41:29.311Z,14.20
2023-01-20T05:43:55.685Z,13.48
2023-01-20T05:46:22.106Z,13.73
2023-01-20T05:48:48.578Z,14.13
2023-01-20T05:51:14.985Z,12.25
2023-01-20T05:53:41.286Z,12.10
2023-01-20T05:56:07.764Z,12.55
2023-01-20T05:58:34.110Z,14.27
2023-01-20T06:01:07.388Z,17.50
2023-01-20T06:03:33.888Z,12.52
2023-01-20T06:06:00.996Z,14.20
2023-01-20T06:08:27.298Z,12.52
2023-01-20T06:10:53.692Z,15.05
2023-01-20T06:13:20.040Z,14.65
2023-01-20T06:15:50.762Z,17.88
2023-01-20T06:18:17.028Z,14.93
2023-01-20T06:20:43.349Z,17.48
2023-01-20T06:23:09.716Z,19.65
2023-01-20T06:25:36.021Z,20.27
2023-01-20T06:28:02.607Z,18.60
2023-01-20T06:30:28.860Z,22.15
2023-01-20T06:32:55.196Z,28.42
2023-01-20T06:35:21.562Z,34.72
2023-01-20T06:37:47.841Z,29.17
2023-01-20T06:40:14.991Z,25.83
2023-01-20T06:42:41.422Z,25.92
2023-01-20T06:45:08.180Z,18.23
2023-01-20T06:47:34.503Z,17.70
2023-01-20T06:50:00.856Z,17.33
2023-01-20T06:52:27.228Z,16.63
2023-01-20T06:54:53.522Z,20.50
2023-01-20T06:57:19.807Z,16.33
2023-01-20T06:59:46.169Z,17.85
2023-01-20T07:02:12.649Z,18.02
2023-01-20T07:04:39.113Z,17.27
2023-01-20T07:07:05.616Z,17.60
2023-01-20T07:09:31.988Z,17.38
2023-01-20T07:11:58.394Z,16.77
2023-01-20T07:14:24.728Z,19.00
2023-01-20T07:16:51.054Z,21.58
2023-01-20T07:19:17.455Z,20.48
2023-01-20T07:21:43.899Z,19.63
2023-01-20T07:24:10.295Z,22.98
2023-01-20T07:26:36.623Z,28.08
2023-01-20T07:29:02.969Z,26.33
2023-01-20T07:31:31.210Z,22.98
2023-01-20T07:33:57.820Z,31.40
2023-01-20T07:36:24.490Z,22.20
2023-01-20T07:38:51.294Z,24.33
2023-01-20T07:41:19.394Z,23.58
2023-01-20T07:43:46.431Z,22.95
2023-01-20T07:46:13.423Z,23.27
2023-01-20T07:48:39.833Z,23.52
2023-01-20T07:51:07.408Z,27.42
2023-01-20T07:53:41.052Z,27.45
2023-01-20T07:58:33.969Z,25.42
2023-01-20T08:01:07.928Z,25.27
2023-01-20T08:03:34.329Z,26.92
2023-01-20T08:06:04.343Z,27.77
2023-01-20T08:08:32.029Z,29.80
2023-01-20T08:10:58.912Z,26.40
2023-01-20T08:13:25.333Z,26.60
2023-01-20T08:15:51.678Z,28.17
2023-01-20T08:18:17.966Z,25.58
2023-01-20T08:20:44.305Z,22.17
2023-01-20T08:23:10.607Z,23.92
2023-01-20T08:25:36.884Z,24.00
2023-01-20T08:28:05.432Z,23.17
2023-01-20T08:30:31.900Z,19.75
2023-01-20T08:32:58.189Z,22.80
2023-01-20T08:35:24.473Z,23.85
2023-01-20T08:37:50.815Z,20.88
2023-01-20T08:40:17.251Z,22.80
2023-01-20T08:42:43.621Z,23.40
2023-01-20T08:45:09.993Z,27.95
2023-01-20T08:47:37.226Z,23.92
2023-01-20T08:50:04.509Z,23.63
2023-01-20T08:52:30.852Z,21.90
2023-01-20T08:54:58.641Z,21.35
2023-01-20T08:57:25.920Z,24.10
2023-01-20T08:59:52.724Z,20.95
2023-01-20T09:02:19.177Z,19.65
2023-01-20T09:04:45.562Z,20.60
2023-01-20T09:07:12.600Z,21.35
2023-01-20T09:09:39.088Z,21.98
2023-01-20T09:12:05.847Z,16.95
2023-01-20T09:14:32.130Z,19.00
2023-01-20T09:16:58.649Z,17.65
2023-01-20T09:19:25.033Z,15.88
2023-01-20T09:21:51.590Z,17.05
2023-01-20T09:24:17.961Z,17.80
2023-01-20T09:26:45.213Z,13.32
2023-01-20T09:29:12.877Z,17.02
2023-01-20T09:31:46.195Z,17.85
2023-01-20T09:34:18.916Z,15.80
2023-01-20T09:36:45.840Z,17.52
2023-01-20T09:39:32.110Z,18.63
2023-01-20T09:42:19.863Z,15.88
2023-01-20T09:45:10.517Z,19.80
2023-01-20T09:47:43.843Z,17.52
2023-01-20T09:50:36.144Z,19.45
2023-01-20T09:53:05.311Z,18.98
2023-01-20T09:55:40.908Z,22.65
2023-01-20T09:58:11.520Z,26.95
2023-01-20T10:00:39.476Z,29.83
2023-01-20T10:03:12.977Z,37.42
2023-01-20T10:05:40.091Z,34.88
2023-01-20T10:08:32.916Z,88.13
2023-01-20T10:11:05.438Z,84.55
2023-01-20T10:13:37.792Z,163.95
2023-01-20T10:16:06.414Z,83.53
2023-01-20T10:18:48.091Z,99.90
2023-01-20T10:21:19.797Z,176.50
2023-01-20T10:23:57.013Z,43.28
2023-01-20T10:26:30.070Z,191.32
2023-01-20T10:29:00.358Z,40.83
2023-01-20T10:31:28.518Z,45.35
2023-01-20T10:33:57.073Z,139.00
2023-01-20T10:36:28.825Z,51.60
2023-01-20T10:38:58.279Z,405.15
2023-01-20T10:41:30.822Z,50.40
2023-01-20T10:43:58.178Z,199.88
2023-01-20T10:46:30.613Z,191.68
2023-01-20T10:49:15.728Z,167.93
2023-01-20T10:51:42.070Z,484.70
2023-01-20T10:54:17.750Z,288.92
2023-01-20T10:56:51.624Z,268.33
2023-01-20T10:59:19.957Z,261.92
2023-01-20T11:01:51.901Z,187.23
2023-01-20T11:04:22.671Z,166.98
2023-01-20T11:06:52.524Z,321.20
2023-01-20T11:09:37.474Z,278.48
2023-01-20T11:12:06.425Z,132.77
2023-01-20T11:14:33.370Z,92.43
2023-01-20T11:17:02.395Z,106.93
2023-01-20T11:19:43.808Z,103.78
2023-01-20T11:22:11.401Z,114.07
2023-01-20T11:24:44.973Z,58.28
2023-01-20T11:27:20.223Z,57.60
2023-01-20T11:30:06.920Z,56.38
2023-01-20T11:32:34.175Z,213.30
2023-01-20T11:35:01.534Z,65.88
2023-01-20T11:37:38.735Z,55.17
2023-01-20T11:40:19.131Z,65.45
2023-01-20T11:42:46.644Z,64.20
2023-01-20T11:45:24.929Z,62.17
2023-01-20T11:48:00.671Z,141.20
2023-01-20T11:50:29.811Z,56.25
2023-01-20T11:53:11.543Z,60.60
2023-01-20T11:55:44.904Z,61.13
2023-01-20T11:58:15.347Z,56.85
2023-01-20T12:00:42.952Z,73.18
2023-01-20T12:03:26.097Z,66.70
2023-01-20T12:05:57.081Z,66.77
2023-01-20T12:08:34.042Z,63.83
2023-01-20T12:11:02.618Z,59.95
2023-01-20T12:13:31.066Z,56.95
2023-01-20T12:16:01.231Z,58.22
2023-01-20T12:19:01.137Z,61.10
2023-01-20T12:21:34.523Z,52.83
2023-01-20T12:24:03.100Z,49.55
2023-01-20T12:26:34.567Z,53.33
2023-01-20T12:29:05.153Z,47.30
2023-01-20T12:31:31.813Z,49.08
2023-01-20T12:34:05.633Z,51.30
2023-01-20T12:36:31.964Z,51.63
2023-01-20T12:39:10.429Z,46.65
2023-01-20T12:41:46.949Z,47.70
2023-01-20T12:44:17.430Z,45.72
2023-01-20T12:46:53.094Z,45.40
2023-01-20T12:49:19.385Z,50.42
2023-01-20T12:52:04.316Z,46.40
2023-01-20T12:54:48.406Z,45.90
2023-01-20T12:57:15.366Z,45.08
2023-01-20T13:00:01.734Z,45.80
2023-01-20T13:02:40.849Z,43.28
2023-01-20T13:05:10.265Z,46.88
2023-01-20T13:07:46.028Z,41.15
2023-01-20T13:10:12.367Z,46.85
2023-01-20T13:12:43.381Z,44.40
2023-01-20T13:15:16.979Z,41.13
2023-01-20T13:17:52.173Z,41.22
2023-01-20T13:20:22.858Z,40.33
2023-01-20T13:22:50.118Z,42.40
2023-01-20T13:25:18.047Z,41.53
2023-01-20T13:27:45.275Z,38.70
2023-01-20T13:30:30.560Z,40.10
2023-01-20T13:33:12.886Z,36.53
2023-01-20T13:35:43.599Z,35.42
2023-01-20T13:38:27.844Z,37.53
2023-01-20T13:40:55.144Z,36.50
2023-01-20T13:43:27.444Z,34.70
2023-01-20T13:46:02.783Z,46.15
2023-01-20T13:48:33.230Z,38.42
2023-01-20T13:51:29.540Z,37.45
2023-01-20T13:54:15.812Z,39.85
2023-01-20T13:56:42.064Z,37.75
2023-01-20T13:59:08.774Z,45.67
2023-01-20T14:01:37.146Z,40.22
2023-01-20T14:04:24.061Z,38.30
2023-01-20T14:06:51.465Z,38.15
2023-01-20T14:09:22.625Z,39.60
2023-01-20T14:11:49.874Z,37.58
2023-01-20T14:14:18.703Z,34.00
2023-01-20T14:16:45.277Z,35.47
2023-01-20T14:19:14.356Z,34.28
2023-01-20T14:21:41.317Z,41.38
2023-01-20T14:24:25.832Z,39.55
2023-01-20T14:27:05.052Z,36.70
2023-01-20T14:29:31.350Z,34.42
2023-01-20T14:31:57.993Z,37.38
2023-01-20T14:34:32.533Z,37.90
2023-01-20T14:37:01.077Z,38.42
2023-01-20T14:39:28.250Z,34.17
2023-01-20T14:41:55.755Z,39.38
2023-01-20T14:44:26.405Z,41.78
2023-01-20T14:46:54.119Z,39.60
2023-01-20T14:49:21.972Z,57.85
2023-01-20T14:51:49.669Z,44.95
2023-01-20T14:54:30.098Z,35.83
2023-01-20T14:56:57.340Z,36.53
2023-01-20T14:59:23.908Z,38.75
2023-01-20T15:01:54.347Z,41.20
2023-01-20T15:04:21.212Z,37.30
2023-01-20T15:06:51.524Z,38.33
2023-01-20T15:09:25.781Z,38.60
2023-01-20T15:11:52.047Z,37.35
2023-01-20T15:14:18.392Z,41.75
2023-01-20T15:16:47.365Z,37.90
2023-01-20T15:19:16.844Z,38.88
2023-01-20T15:21:45.753Z,35.83
2023-01-20T15:24:19.631Z,39.47
2023-01-20T15:26:46.699Z,42.85
2023-01-20T15:29:26.642Z,40.95
2023-01-20T15:31:53.965Z,38.95
2023-01-20T15:34:21.000Z,42.67
2023-01-20T15:36:48.088Z,47.63
2023-01-20T15:39:18.372Z,44.47
2023-01-20T15:41:45.570Z,37.08
2023-01-20T15:44:11.903Z,47.25
2023-01-20T15:46:39.488Z,37.58
2023-01-20T15:49:15.084Z,39.47
2023-01-20T15:51:42.527Z,38.83
2023-01-20T15:54:09.477Z,32.65
2023-01-20T15:56:38.660Z,41.38
2023-01-20T15:59:15.377Z,38.00
2023-01-20T16:01:42.076Z,38.70
2023-01-20T16:04:09.238Z,38.33
2023-01-20T16:06:37.001Z,35.20
2023-01-20T16:09:12.893Z,42.17
2023-01-20T16:11:42.039Z,35.67
2023-01-20T16:14:08.280Z,38.85
2023-01-20T16:16:34.653Z,38.28
2023-01-20T16:19:01.102Z,37.70
2023-01-20T16:21:27.536Z,40.47
2023-01-20T16:23:53.873Z,43.10
2023-01-20T16:26:24.588Z,37.33
2023-01-20T16:28:51.559Z,40.63
2023-01-20T16:31:18.402Z,41.70
2023-01-20T16:33:44.760Z,43.33
2023-01-20T16:36:18.285Z,39.78
2023-01-20T16:38:45.293Z,38.63
2023-01-20T16:41:20.761Z,41.42
2023-01-20T16:43:47.381Z,46.03
2023-01-20T16:46:18.070Z,41.65
2023-01-20T16:48:44.884Z,39.55
2023-01-20T16:51:15.106Z,40.75
2023-01-20T16:53:41.685Z,44.30
2023-01-20T16:56:18.487Z,42.60
2023-01-20T16:58:46.707Z,47.22
2023-01-20T17:01:13.256Z,42.53
2023-01-20T17:03:40.187Z,43.78
2023-01-20T17:06:10.940Z,49.28
2023-01-20T17:08:37.383Z,51.55
2023-01-20T17:11:03.770Z,47.30
2023-01-20T17:13:30.087Z,38.67
2023-01-20T17:15:56.365Z,32.38
2023-01-20T17:18:23.370Z,32.72
2023-01-20T17:20:49.713Z,28.02
2023-01-20T17:23:15.970Z,28.60
2023-01-20T17:25:42.236Z,29.33
2023-01-20T17:28:08.570Z,34.42
2023-01-20T17:30:34.916Z,33.75
2023-01-20T17:33:01.189Z,34.40
2023-01-20T17:35:27.924Z,36.05
2023-01-20T17:37:54.311Z,38.67
2023-01-20T17:40:20.893Z,45.58
2023-01-20T17:42:47.320Z,40.47
2023-01-20T17:45:13.789Z,43.50
2023-01-20T17:47:40.189Z,42.53
2023-01-20T17:50:06.574Z,43.28
2023-01-20T17:52:32.885Z,38.10
2023-01-20T17:54:59.377Z,34.67
2023-01-20T17:57:27.131Z,35.08
2023-01-20T17:59:53.564Z,37.80
2023-01-20T18:02:21.995Z,40.30
2023-01-20T18:04:48.339Z,43.85
2023-01-20T18:07:14.665Z,35.75
2023-01-20T18:09:42.924Z,40.42
2023-01-20T18:12:09.528Z,35.10
2023-01-20T18:14:35.838Z,37.28
2023-01-20T18:17:02.199Z,39.95
2023-01-20T18:19:28.501Z,40.55
2023-01-20T18:21:54.873Z,36.28
2023-01-20T18:24:21.244Z,36.80
2023-01-20T18:26:47.589Z,43.35
2023-01-20T18:29:15.344Z,41.35
2023-01-20T18:31:42.186Z,40.72
2023-01-20T18:34:10.601Z,41.83
2023-01-20T18:36:38.545Z,39.42
2023-01-20T18:39:06.287Z,30.73
2023-01-20T18:41:36.400Z,35.97
2023-01-20T18:44:03.757Z,36.55
2023-01-20T18:46:30.181Z,35.88
2023-01-20T18:48:56.556Z,38.33
2023-01-20T18:51:24.353Z,34.03
2023-01-20T18:53:58.202Z,35.50
2023-01-20T18:56:25.058Z,34.08
2023-01-20T18:58:51.427Z,38.75
2023-01-20T19:01:19.464Z,40.78
2023-01-20T19:03:46.582Z,35.95
2023-01-20T19:06:14.814Z,37.72
2023-01-20T19:08:41.881Z,34.42
2023-01-20T19:11:10.298Z,37.78
2023-01-20T19:13:36.653Z,38.90
2023-01-20T19:16:03.033Z,42.55
2023-01-20T19:18:29.640Z,40.97
2023-01-20T19:20:56.027Z,51.67
2023-01-20T19:23:22.383Z,47.67
2023-01-20T19:25:58.692Z,50.80
2023-01-20T19:28:24.942Z,53.40
2023-01-20T19:30:51.320Z,50.67
2023-01-20T19:33:17.750Z,47.50
2023-01-20T19:35:44.036Z,38.55
2023-01-20T19:38:10.364Z,28.75
2023-01-20T19:40:36.775Z,24.67
2023-01-20T19:43:03.485Z,24.55
2023-01-20T19:45:44.777Z,24.85
2023-01-20T19:48:12.044Z,19.75
2023-01-20T19:50:38.389Z,19.23
2023-01-20T19:53:04.637Z,21.63
2023-01-20T19:55:30.925Z,26.63
2023-01-20T19:57:57.289Z,25.77
2023-01-20T20:00:23.783Z,25.85
2023-01-20T20:02:53.515Z,24.20
2023-01-20T20:05:19.805Z,29.23
2023-01-20T20:07:46.173Z,31.55
2023-01-20T20:10:12.548Z,29.27
2023-01-20T20:12:38.978Z,30.45
2023-01-20T20:15:05.559Z,28.13
2023-01-20T20:17:31.890Z,25.55
2023-01-20T20:19:58.172Z,23.80
2023-01-20T20:22:24.790Z,27.30
2023-01-20T20:24:51.095Z,26.77
2023-01-20T20:27:17.381Z,29.77
2023-01-20T20:29:43.754Z,29.30
2023-01-20T20:32:10.138Z,31.48
2023-01-20T20:34:36.494Z,30.40
2023-01-20T20:37:03.435Z,34.33
2023-01-20T20:39:29.837Z,27.15
2023-01-20T20:41:56.599Z,30.30
2023-01-20T20:44:23.313Z,29.50
2023-01-20T20:46:49.870Z,29.98
2023-01-20T20:49:16.242Z,27.45
2023-01-20T20:51:42.819Z,28.48
2023-01-20T20:54:09.484Z,25.27
2023-01-20T20:56:36.503Z,22.80
2023-01-20T20:59:03.812Z,25.10
2023-01-20T21:01:32.700Z,23.65
2023-01-20T21:04:00.230Z,22.98
2023-01-20T21:06:26.622Z,22.33
2023-01-20T21:08:53.068Z,19.15
2023-01-20T21:11:20.305Z,21.20
2023-01-20T21:13:49.043Z,22.42
2023-01-20T21:16:17.310Z,21.88
2023-01-20T21:18:43.710Z,24.60
2023-01-20T21:21:13.668Z,19.52
2023-01-20T21:23:42.885Z,20.00
2023-01-20T21:26:12.973Z,24.48
2023-01-20T21:28:40.592Z,24.35
2023-01-20T21:31:07.773Z,27.38
2023-01-20T21:33:35.258Z,28.05
2023-01-20T21:36:03.773Z,24.58
2023-01-20T21:38:31.393Z,29.85
2023-01-20T21:41:00.475Z,26.58
2023-01-20T21:43:49.125Z,27.23
2023-01-20T21:46:15.751Z,30.65
2023-01-20T21:49:00.805Z,33.00
2023-01-20T21:51:45.800Z,31.92
2023-01-20T21:54:12.071Z,30.02
2023-01-20T21:56:38.442Z,33.60
2023-01-20T21:59:04.890Z,29.27
2023-01-20T22:01:31.336Z,26.33
2023-01-20T22:03:57.655Z,29.67
2023-01-20T22:06:23.965Z,30.27
2023-01-20T22:08:50.270Z,27.52
2023-01-20T22:11:16.551Z,31.50
2023-01-20T22:13:42.846Z,40.60
2023-01-20T22:16:09.282Z,42.03
2023-01-20T22:18:35.616Z,45.70
2023-01-20T22:21:02.786Z,44.17
2023-01-20T22:23:31.464Z,46.10
2023-01-20T22:25:57.870Z,53.75
2023-01-20T22:28:24.625Z,54.53
2023-01-20T22:30:51.364Z,56.92
2023-01-20T22:33:17.727Z,54.22
2023-01-20T22:35:44.017Z,53.42
2023-01-20T22:38:10.323Z,53.92
2023-01-20T22:40:36.617Z,55.55
2023-01-20T22:43:03.032Z,55.15
2023-01-20T22:45:29.421Z,57.80
2023-01-20T22:47:56.046Z,55.45
2023-01-20T22:50:22.515Z,57.58
2023-01-20T22:52:49.155Z,63.08
2023-01-20T22:55:15.439Z,57.40
2023-01-20T22:57:41.714Z,53.75
2023-01-20T23:00:08.583Z,57.08
2023-01-20T23:02:34.895Z,50.40
2023-01-20T23:05:01.157Z,54.53
2023-01-20T23:07:27.396Z,51.50
2023-01-20T23:09:53.669Z,58.63
2023-01-20T23:12:19.976Z,62.50
2023-01-20T23:14:58.516Z,58.33
2023-01-20T23:17:29.085Z,65.00
2023-01-20T23:19:56.538Z,59.67
2023-01-20T23:22:23.281Z,60.92
2023-01-20T23:24:50.011Z,61.80
2023-01-20T23:27:16.699Z,59.22
2023-01-20T23:29:43.040Z,55.67
2023-01-20T23:32:09.344Z,58.25
2023-01-20T23:34:35.595Z,61.85
2023-01-20T23:37:01.919Z,60.67
2023-01-20T23:39:28.181Z,61.08
2023-01-20T23:41:54.895Z,58.28
2023-01-20T23:44:21.244Z,58.00
2023-01-20T23:46:47.585Z,56.92
2023-01-20T23:49:13.874Z,54.60
2023-01-20T23:51:40.202Z,52.03
2023-01-20T23:54:07.381Z,55.08
2023-01-20T23:56:33.700Z,53.53
2023-01-20T23:59:00.019Z,54.40
